Aviation Digital Data Service (ADDS)

Output produced by METARs form (0451 UTC 20 April 2018)
found at http://www.aviationweather.gov/adds/metars/
 
LETO 200400Z VRB02KT CAVOK 13/07 Q1021 NOSIG
TAF LETO 192300Z 2000/2024 13008KT CAVOK TX22/2016Z TN08/2006Z 
     BECMG 2000/2002 VRB05KT 
     BECMG 2010/2012 14010G22KT 
     PROB30 
     TEMPO 2012/2019 FEW040TCU 
     BECMG 2021/2023 VRB05KT
       
LEZG 200430Z 09003KT 9999 FEW070 11/09 Q1023
TAF LEZG 192300Z 2000/2024 12006KT 9999 FEW050 TX25/2013Z TN10/2006Z 
     BECMG 2010/2012 12015KT 
     TEMPO 2012/2018 12015G25KT
       
LERT 200400Z 10022KT CAVOK 16/11 Q1012 NOSIG
TAF LERT 200200Z 2003/2012 11022KT CAVOK 
     TEMPO 2003/2012 11024G38KT 
     PROB40 
     TEMPO 2009/2012 12030G43KT
       
TAF LELC 192300Z 2000/2024 05014KT 9999 BKN020 TX20/2013Z TN14/2006Z 
     TEMPO 2000/2010 BKN012 
     PROB30 
     TEMPO 2008/2020 05016G26KT
       
LEAB 200400Z 15003KT 9999 OVC024 10/09 Q1022 NOSIG
TAF LEAB 200200Z 2003/2012 11007KT 9999 BKN020 
     PROB40 
     TEMPO 2003/2007 BKN013 
     PROB40 
     TEMPO 2010/2012 10017G27KT
       
TAF LEBZ 192300Z 2000/2024 09005KT CAVOK TX27/2016Z TN12/2006Z 
     BECMG 2006/2009 09015KT 
     TEMPO 2008/2017 09016G28KT
       
LEMO 200400Z 08007KT CAVOK 14/09 Q1013 NOSIG
TAF LEMO 200200Z 2003/2012 07010KT CAVOK 
     BECMG 2009/2012 13014KT
       
TAF LESA 192300Z 2000/2024 VRB05KT CAVOK TX22/2016Z TN07/2006Z 
     BECMG 2007/2009 11013KT 
     TEMPO 2009/2018 11015G25KT 
     PROB30 
     TEMPO 2013/2018 FEW040TCU
       
GCLP 200430Z 36018KT 9999 FEW030 17/11 Q1016 NOSIG
TAF GCLP 200200Z 2003/2103 36020KT 9999 FEW020 TX20/2014Z TN15/2006Z 
     TEMPO 2003/2018 36025G35KT
       
LIED 200355Z 28002KT CAVOK 12/11 Q1021 RMK SCT SCT200 VIS MIN 9999 WIND THR35 28003KT WIND THR17 /////KT BLU
TAF LIED 192300Z 2000/2009 33003KT CAVOK 
     TEMPO 2004/2006 7000 SCT010
       
LIPR 200415Z 27003KT CAVOK 14/09 Q1023
TAF LIPR 200200Z 2003/2012 VRB03KT CAVOK 
     BECMG 2006/2008 34010KT